Time;durP1;ratioP1;P1;durP2;ratioP2;P2;SDS_P1;SDS_P2;PMS_P1;PMS_P2;Temp;Humidity;BMP_temperature;BMP_pressure;BME280_temperature;BME280_humidity;BME280_pressure;Samples;Min_cycle;Max_cycle;Signal;HPM_P1;HPM_P2
2023/01/09 00:00:43;;;;;;;2.97;1.10;;;7.20;99.90;;;;;;5082164;28;20056;-85
2023/01/09 00:03:09;;;;;;;3.33;1.63;;;7.20;99.90;;;;;;5070255;28;20065;-89
2023/01/09 00:05:35;;;;;;;2.20;1.20;;;7.30;99.90;;;;;;5076878;28;20123;-84
2023/01/09 00:08:01;;;;;;;2.42;1.10;;;7.30;99.90;;;;;;5070788;28;20036;-83
2023/01/09 00:10:27;;;;;;;2.90;1.20;;;7.30;99.90;;;;;;5070023;28;20410;-82
2023/01/09 00:12:52;;;;;;;3.63;1.40;;;7.20;99.90;;;;;;5096951;28;20084;-85
2023/01/09 00:15:18;;;;;;;4.00;2.03;;;7.30;99.90;;;;;;5061181;28;20052;-90
2023/01/09 00:17:46;;;;;;;2.72;1.45;;;7.20;99.90;;;;;;5076007;28;20067;-89
2023/01/09 00:20:13;;;;;;;2.45;1.27;;;7.20;99.90;;;;;;5072710;28;20048;-87
2023/01/09 00:22:38;;;;;;;2.90;1.30;;;7.20;99.90;;;;;;5100946;28;20038;-95
2023/01/09 00:25:05;;;;;;;2.92;1.40;;;7.20;99.90;;;;;;5060756;28;20104;-95
2023/01/09 00:27:32;;;;;;;2.80;1.38;;;7.20;99.90;;;;;;5058367;28;20039;-93
2023/01/09 00:29:58;;;;;;;6.85;3.15;;;7.30;99.90;;;;;;5040217;28;20120;-94
2023/01/09 00:32:24;;;;;;;3.10;1.20;;;7.30;99.90;;;;;;5072355;28;20554;-86
2023/01/09 00:34:50;;;;;;;1.88;1.13;;;7.30;99.90;;;;;;5076970;28;20051;-86
2023/01/09 00:37:15;;;;;;;2.10;1.48;;;7.30;99.90;;;;;;5052659;28;20060;-87
2023/01/09 00:39:41;;;;;;;2.63;1.48;;;7.30;99.90;;;;;;5063615;28;20040;-82
2023/01/09 00:42:11;;;;;;;2.47;1.40;;;7.30;99.90;;;;;;5092021;28;20051;-84
2023/01/09 00:44:42;;;;;;;4.28;1.77;;;7.30;99.90;;;;;;5087787;28;20055;-79
2023/01/09 00:47:14;;;;;;;2.70;1.70;;;7.20;99.90;;;;;;5094768;28;20036;-92
2023/01/09 00:49:41;;;;;;;3.80;1.70;;;7.20;99.90;;;;;;5089673;28;20072;-81
2023/01/09 00:52:10;;;;;;;3.20;1.65;;;7.20;99.90;;;;;;5065080;28;20036;-77
2023/01/09 00:54:37;;;;;;;4.50;1.70;;;7.20;99.90;;;;;;5066551;28;20047;-76
2023/01/09 00:57:03;;;;;;;4.20;1.60;;;7.30;99.90;;;;;;5099581;28;20661;-76
2023/01/09 00:59:29;;;;;;;2.88;1.90;;;7.30;99.90;;;;;;5068107;28;20040;-81
2023/01/09 01:01:55;;;;;;;4.18;2.00;;;7.30;99.90;;;;;;5088672;28;20055;-80
2023/01/09 01:09:49;;;;;;;2.65;1.60;;;7.10;99.90;;;;;;5087767;28;20057;-83
2023/01/09 01:12:14;;;;;;;2.20;1.20;;;7.10;99.90;;;;;;5057333;28;20075;-77
2023/01/09 01:14:41;;;;;;;3.65;1.40;;;7.00;99.90;;;;;;5070413;28;20055;-77
2023/01/09 01:17:07;;;;;;;3.05;1.25;;;7.00;99.90;;;;;;5066128;28;20559;-78
2023/01/09 01:19:34;;;;;;;2.45;1.17;;;6.90;99.90;;;;;;5040251;28;20060;-78
2023/01/09 01:21:59;;;;;;;2.20;1.00;;;6.90;99.90;;;;;;5109987;28;20029;-79
2023/01/09 01:24:25;;;;;;;2.17;1.00;;;6.90;99.90;;;;;;5072491;28;20086;-80
2023/01/09 01:26:51;;;;;;;2.03;1.05;;;6.80;99.90;;;;;;5079074;28;20500;-79
2023/01/09 01:29:16;;;;;;;2.28;0.80;;;6.80;99.90;;;;;;5077411;28;20045;-80
2023/01/09 01:31:42;;;;;;;1.90;0.80;;;6.70;99.90;;;;;;5045210;28;20063;-79
2023/01/09 01:34:08;;;;;;;1.45;0.75;;;6.70;99.90;;;;;;5082495;28;20055;-81
2023/01/09 01:36:34;;;;;;;1.40;0.70;;;6.70;99.90;;;;;;5089571;28;20166;-79
2023/01/09 01:38:59;;;;;;;2.40;0.70;;;6.60;99.90;;;;;;5074980;28;20051;-79
2023/01/09 01:41:28;;;;;;;1.90;0.85;;;6.60;99.90;;;;;;5085982;28;20040;-79
2023/01/09 01:44:00;;;;;;;1.25;0.60;;;6.60;99.90;;;;;;5099053;28;20043;-79
2023/01/09 01:46:26;;;;;;;3.55;2.10;;;6.60;99.90;;;;;;5078162;28;20096;-78
2023/01/09 01:49:02;;;;;;;2.67;1.10;;;6.50;99.90;;;;;;5077334;28;20090;-78
2023/01/09 01:51:32;;;;;;;2.20;1.20;;;6.50;99.90;;;;;;5083056;28;20048;-78
2023/01/09 01:54:02;;;;;;;2.50;1.35;;;6.50;99.90;;;;;;5110136;28;20037;-77
2023/01/09 01:56:34;;;;;;;2.65;1.73;;;6.50;99.90;;;;;;5092641;28;20068;-79
2023/01/09 01:59:10;;;;;;;3.00;1.98;;;6.60;99.90;;;;;;5096686;28;20135;-82
2023/01/09 02:01:39;;;;;;;3.03;1.88;;;6.70;99.90;;;;;;5080972;28;20052;-78
2023/01/09 02:04:06;;;;;;;3.63;2.05;;;6.70;99.90;;;;;;5078247;28;20071;-77
2023/01/09 02:06:33;;;;;;;3.63;1.60;;;6.80;99.90;;;;;;5077258;28;20041;-79
2023/01/09 02:09:02;;;;;;;2.55;1.60;;;6.80;99.90;;;;;;5074600;28;20044;-78
2023/01/09 02:11:28;;;;;;;3.92;1.80;;;6.80;99.90;;;;;;5086054;28;20032;-77
2023/01/09 02:13:54;;;;;;;2.95;1.60;;;6.80;99.90;;;;;;5071053;28;20032;-77
2023/01/09 02:16:51;;;;;;;3.30;1.65;;;6.80;99.90;;;;;;5064005;28;20143;-80
2023/01/09 02:19:25;;;;;;;1.92;1.23;;;6.70;99.90;;;;;;5095483;28;20071;-78
2023/01/09 02:22:20;;;;;;;3.58;1.58;;;6.70;99.90;;;;;;5080093;28;20044;-80
2023/01/09 02:25:00;;;;;;;2.47;1.42;;;6.70;99.90;;;;;;5076856;28;20059;-79
2023/01/09 02:27:41;;;;;;;3.33;1.40;;;6.70;99.90;;;;;;5086088;28;20048;-76
2023/01/09 02:30:30;;;;;;;2.80;1.40;;;6.70;99.90;;;;;;5069874;28;20496;-77
2023/01/09 02:33:31;;;;;;;1.98;1.20;;;6.70;99.90;;;;;;5080146;28;20036;-77
2023/01/09 02:36:03;;;;;;;2.22;1.10;;;6.60;99.90;;;;;;5073775;28;20044;-78
2023/01/09 02:38:46;;;;;;;3.55;1.02;;;6.50;99.90;;;;;;5085238;28;20113;-77
2023/01/09 02:41:31;;;;;;;2.88;1.13;;;6.50;99.90;;;;;;5058786;28;20055;-78
2023/01/09 02:44:22;;;;;;;2.40;1.10;;;6.50;99.90;;;;;;5088677;28;20056;-78
2023/01/09 02:47:07;;;;;;;2.38;1.08;;;6.50;99.90;;;;;;5082705;28;20111;-76
2023/01/09 02:49:37;;;;;;;4.53;1.67;;;6.40;99.90;;;;;;5085083;28;20110;-80
2023/01/09 02:52:37;;;;;;;1.65;0.90;;;6.50;99.90;;;;;;5072243;28;20062;-77
2023/01/09 02:55:28;;;;;;;2.40;1.10;;;6.40;99.90;;;;;;5095581;28;20083;-78
2023/01/09 02:58:09;;;;;;;1.55;0.80;;;6.40;99.90;;;;;;5079934;28;20044;-77
2023/01/09 03:00:34;;;;;;;2.80;1.20;;;6.40;99.90;;;;;;5098083;28;20044;-78
2023/01/09 03:03:03;;;;;;;4.78;1.20;;;6.40;99.90;;;;;;5095819;28;20058;-77
2023/01/09 03:05:38;;;;;;;2.72;1.13;;;6.30;99.90;;;;;;5098720;28;20048;-79
2023/01/09 03:08:10;;;;;;;2.72;1.10;;;6.30;99.90;;;;;;5095292;28;20040;-77
2023/01/09 03:10:54;;;;;;;1.77;1.00;;;6.20;99.90;;;;;;5073206;28;20079;-78
2023/01/09 03:13:24;;;;;;;2.47;1.33;;;6.10;99.90;;;;;;5077056;28;20044;-78
2023/01/09 03:15:53;;;;;;;2.63;1.30;;;6.10;99.90;;;;;;5075471;28;20123;-79
2023/01/09 03:18:23;;;;;;;2.75;1.30;;;6.00;99.90;;;;;;5078954;28;20048;-77
2023/01/09 03:20:50;;;;;;;2.65;1.20;;;6.00;99.90;;;;;;5086274;28;20044;-76
2023/01/09 03:23:16;;;;;;;3.33;1.73;;;5.90;99.90;;;;;;5076876;28;20045;-77
2023/01/09 03:25:42;;;;;;;3.60;1.50;;;5.80;99.90;;;;;;5089982;28;20506;-76
2023/01/09 03:28:19;;;;;;;4.05;1.52;;;5.80;99.90;;;;;;5090403;28;20032;-78
2023/01/09 03:30:45;;;;;;;2.63;1.40;;;5.80;99.90;;;;;;5091149;28;20526;-76
2023/01/09 03:33:11;;;;;;;2.22;1.30;;;5.70;99.90;;;;;;5095618;28;20074;-77
2023/01/09 03:35:37;;;;;;;2.95;1.63;;;5.70;99.90;;;;;;5080164;28;20051;-77
2023/01/09 03:38:02;;;;;;;3.05;1.33;;;5.70;99.90;;;;;;5071741;28;20086;-78
2023/01/09 03:40:29;;;;;;;2.05;1.30;;;5.60;99.90;;;;;;5075034;28;20052;-76
2023/01/09 03:42:55;;;;;;;2.72;1.40;;;5.60;99.90;;;;;;5082973;28;20654;-77
2023/01/09 03:45:20;;;;;;;3.25;1.50;;;5.50;99.90;;;;;;5077307;28;20044;-77
2023/01/09 03:47:46;;;;;;;3.42;1.65;;;5.50;99.90;;;;;;5097336;28;20445;-77
2023/01/09 03:50:12;;;;;;;3.03;1.83;;;5.50;99.90;;;;;;5095009;28;20131;-76
2023/01/09 03:52:37;;;;;;;3.42;1.58;;;5.50;99.90;;;;;;5082405;28;20063;-79
2023/01/09 03:55:04;;;;;;;2.03;1.27;;;5.40;99.90;;;;;;5079165;28;20086;-77
2023/01/09 03:57:29;;;;;;;3.42;1.50;;;5.40;99.90;;;;;;5099501;28;20416;-78
2023/01/09 03:59:55;;;;;;;4.15;1.90;;;5.40;99.90;;;;;;5087740;28;20056;-78
2023/01/09 04:02:21;;;;;;;3.03;1.70;;;5.40;99.90;;;;;;5076006;28;20146;-80
2023/01/09 04:04:46;;;;;;;4.85;2.45;;;5.30;99.90;;;;;;5087321;28;20099;-78
2023/01/09 04:07:12;;;;;;;3.63;1.92;;;5.30;99.90;;;;;;5081554;28;20041;-80
2023/01/09 04:09:38;;;;;;;3.63;2.10;;;5.30;99.90;;;;;;5078985;28;20109;-83
2023/01/09 04:12:04;;;;;;;3.83;2.30;;;5.30;99.90;;;;;;5073268;28;20051;-80
2023/01/09 04:14:29;;;;;;;4.80;2.65;;;5.30;99.90;;;;;;5065599;28;20048;-78
2023/01/09 04:16:55;;;;;;;3.55;2.38;;;5.30;99.90;;;;;;5081149;28;20137;-83
2023/01/09 04:19:21;;;;;;;4.18;2.42;;;5.30;99.90;;;;;;5082815;28;20054;-78
2023/01/09 04:21:46;;;;;;;3.60;2.35;;;5.40;99.90;;;;;;5081268;28;20041;-79
2023/01/09 04:24:12;;;;;;;3.83;2.58;;;5.50;99.90;;;;;;5078294;28;20091;-79
2023/01/09 04:26:38;;;;;;;5.20;3.00;;;5.40;99.90;;;;;;5078443;28;20099;-78
2023/01/09 04:29:03;;;;;;;8.32;3.70;;;5.50;99.90;;;;;;5099591;28;20614;-76
2023/01/09 04:31:29;;;;;;;4.55;2.85;;;5.50;99.90;;;;;;5097500;28;20052;-78
2023/01/09 04:33:55;;;;;;;4.65;3.05;;;5.40;99.90;;;;;;5083970;28;20488;-81
2023/01/09 04:36:20;;;;;;;4.72;3.75;;;5.40;99.90;;;;;;5081659;28;20048;-77
2023/01/09 04:38:46;;;;;;;6.78;4.20;;;5.30;99.90;;;;;;5074498;28;20066;-78
2023/01/09 04:41:47;;;;;;;4.40;3.10;;;5.30;99.90;;;;;;5076937;28;20130;-79
2023/01/09 04:43:57;;;;;;;6.05;3.75;;;5.20;99.90;;;;;;5100138;28;20052;-79
2023/01/09 04:46:23;;;;;;;6.80;4.10;;;5.20;99.90;;;;;;5092767;28;20052;-80
2023/01/09 04:48:49;;;;;;;6.75;3.60;;;5.10;99.90;;;;;;5047147;28;20127;-78
2023/01/09 04:51:14;;;;;;;8.07;4.30;;;5.00;99.90;;;;;;5063570;28;20052;-80
2023/01/09 04:53:40;;;;;;;7.07;4.25;;;4.90;99.90;;;;;;5091965;28;20036;-79
2023/01/09 04:56:06;;;;;;;5.95;4.07;;;4.40;99.90;;;;;;5081235;28;20053;-78
2023/01/09 04:58:32;;;;;;;6.15;4.07;;;4.90;99.90;;;;;;5047929;28;20083;-81
2023/01/09 05:00:57;;;;;;;7.28;4.18;;;4.90;99.90;;;;;;5083701;28;20089;-78
2023/01/09 05:03:23;;;;;;;7.15;4.32;;;5.00;99.90;;;;;;5074739;28;20056;-77
2023/01/09 05:05:49;;;;;;;7.57;3.65;;;5.00;99.90;;;;;;5093269;28;20040;-80
2023/01/09 05:08:14;;;;;;;7.40;4.50;;;5.00;99.90;;;;;;5074921;28;20460;-78
2023/01/09 05:10:40;;;;;;;7.18;4.30;;;4.90;99.90;;;;;;5066132;28;20044;-78
2023/01/09 05:13:06;;;;;;;9.00;5.03;;;4.90;99.90;;;;;;5071240;28;20290;-79
2023/01/09 05:15:31;;;;;;;9.20;5.30;;;4.90;99.90;;;;;;5081871;28;20108;-81
2023/01/09 05:17:57;;;;;;;8.32;4.60;;;5.00;99.90;;;;;;5062873;28;20128;-78
2023/01/09 05:20:23;;;;;;;9.23;5.25;;;5.00;99.90;;;;;;5089771;28;20071;-77
2023/01/09 05:22:48;;;;;;;8.88;5.25;;;5.00;99.90;;;;;;5080458;28;20048;-77
2023/01/09 05:25:14;;;;;;;9.40;5.10;;;5.10;99.90;;;;;;5072310;28;20047;-78
2023/01/09 05:27:42;;;;;;;7.10;4.75;;;5.10;99.90;;;;;;5092193;28;20060;-78
2023/01/09 05:30:09;;;;;;;8.57;4.80;;;5.10;99.90;;;;;;5089610;28;20052;-77
2023/01/09 05:32:34;;;;;;;10.18;4.65;;;5.10;99.90;;;;;;5065873;28;20040;-78
2023/01/09 05:35:00;;;;;;;7.45;4.78;;;5.10;99.90;;;;;;5093276;28;20133;-78
2023/01/09 05:37:26;;;;;;;9.65;4.32;;;5.00;99.90;;;;;;5080644;28;20047;-79
2023/01/09 05:39:51;;;;;;;7.20;4.57;;;5.00;99.90;;;;;;5075386;28;20063;-79
2023/01/09 05:42:17;;;;;;;7.90;4.00;;;4.90;99.90;;;;;;5082376;28;20048;-78
2023/01/09 05:44:43;;;;;;;5.75;3.60;;;4.80;99.90;;;;;;5086743;28;20067;-75
2023/01/09 05:47:09;;;;;;;6.65;4.28;;;4.80;99.90;;;;;;5099578;28;20052;-79
2023/01/09 05:49:34;;;;;;;9.15;4.25;;;4.90;99.90;;;;;;5078694;28;20091;-79
2023/01/09 05:52:00;;;;;;;7.25;4.05;;;4.80;99.90;;;;;;5092039;28;20036;-80
2023/01/09 05:54:26;;;;;;;7.70;4.82;;;4.90;99.90;;;;;;5072377;28;20048;-78
2023/01/09 05:56:51;;;;;;;6.63;3.97;;;4.90;99.90;;;;;;5083489;28;20043;-80
2023/01/09 05:59:17;;;;;;;5.28;3.95;;;4.90;99.90;;;;;;5079510;28;20048;-80
2023/01/09 06:01:43;;;;;;;6.53;4.28;;;4.90;99.90;;;;;;5085211;28;20040;-78
2023/01/09 06:04:08;;;;;;;6.18;3.72;;;4.90;99.90;;;;;;5082336;28;20051;-77
2023/01/09 06:06:34;;;;;;;7.93;4.60;;;4.90;99.90;;;;;;5077614;28;20403;-78
2023/01/09 06:09:00;;;;;;;5.45;3.80;;;4.90;99.90;;;;;;5070756;28;20572;-77
2023/01/09 06:11:26;;;;;;;6.57;4.10;;;4.90;99.90;;;;;;5050146;28;20072;-80
2023/01/09 06:13:51;;;;;;;7.25;3.63;;;4.90;99.90;;;;;;5068164;28;20043;-79
2023/01/09 06:16:17;;;;;;;5.55;3.47;;;4.90;99.90;;;;;;5057798;28;20062;-76
2023/01/09 06:18:43;;;;;;;6.82;4.32;;;5.00;99.90;;;;;;5054944;28;20391;-80
2023/01/09 06:21:08;;;;;;;5.88;3.97;;;5.10;99.90;;;;;;5072457;28;20396;-78
2023/01/09 06:23:34;;;;;;;6.72;4.40;;;5.10;99.90;;;;;;5095742;28;20083;-80
2023/01/09 06:26:00;;;;;;;6.00;3.70;;;5.20;99.90;;;;;;5061780;28;20056;-76
2023/01/09 06:28:25;;;;;;;5.43;3.92;;;5.20;99.90;;;;;;5087370;28;20043;-76
2023/01/09 06:30:52;;;;;;;5.80;3.58;;;5.20;99.90;;;;;;5091351;28;20086;-79
2023/01/09 06:33:18;;;;;;;6.20;3.80;;;5.20;99.90;;;;;;5097407;28;20051;-78
2023/01/09 06:35:43;;;;;;;7.80;3.97;;;5.30;99.90;;;;;;5080460;28;20052;-79
2023/01/09 06:38:09;;;;;;;4.65;3.45;;;5.20;99.90;;;;;;5075477;28;20132;-81
2023/01/09 06:40:35;;;;;;;6.15;3.13;;;5.20;99.90;;;;;;5065212;28;20104;-79
2023/01/09 06:43:00;;;;;;;6.95;3.80;;;5.20;99.90;;;;;;5088949;28;20044;-80
2023/01/09 06:45:26;;;;;;;5.95;3.22;;;5.20;99.90;;;;;;5075229;28;20098;-78
2023/01/09 06:47:52;;;;;;;4.22;2.38;;;5.20;99.90;;;;;;5077882;28;20603;-77
2023/01/09 06:50:18;;;;;;;4.97;2.85;;;5.10;99.90;;;;;;5076306;28;20062;-79
2023/01/09 06:52:43;;;;;;;5.13;2.53;;;5.10;99.90;;;;;;5060663;28;20049;-80
2023/01/09 06:55:09;;;;;;;4.68;2.33;;;5.10;99.90;;;;;;5071569;28;20036;-77
2023/01/09 06:57:35;;;;;;;5.13;2.78;;;5.00;99.90;;;;;;5042517;28;20487;-81
2023/01/09 07:00:01;;;;;;;4.30;2.60;;;5.00;99.90;;;;;;5084496;28;20078;-79
2023/01/09 07:02:26;;;;;;;6.78;2.67;;;5.00;99.90;;;;;;5062246;28;20050;-79
2023/01/09 07:04:52;;;;;;;4.28;2.40;;;4.90;99.90;;;;;;5099541;28;20070;-84
2023/01/09 07:07:19;;;;;;;4.55;2.63;;;4.80;99.90;;;;;;5095885;28;20067;-79
2023/01/09 07:09:44;;;;;;;4.57;2.40;;;4.80;99.90;;;;;;5079766;28;20037;-80
2023/01/09 07:12:11;;;;;;;5.65;2.65;;;4.80;99.90;;;;;;5079897;28;20077;-81
2023/01/09 07:14:37;;;;;;;5.18;3.35;;;4.70;99.90;;;;;;5084605;28;20102;-80
2023/01/09 07:17:03;;;;;;;5.03;2.80;;;4.60;99.90;;;;;;5077408;28;20053;-80
2023/01/09 07:19:28;;;;;;;5.28;2.63;;;4.60;99.90;;;;;;5038399;28;20060;-80
2023/01/09 07:21:54;;;;;;;3.75;2.53;;;4.60;99.90;;;;;;5073293;28;20120;-81
2023/01/09 07:24:20;;;;;;;3.95;1.92;;;4.50;99.90;;;;;;5059018;28;20140;-79
2023/01/09 07:26:45;;;;;;;6.10;2.28;;;4.50;99.90;;;;;;5079455;28;20047;-80
2023/01/09 07:29:11;;;;;;;3.35;1.83;;;4.60;99.90;;;;;;5082104;28;20040;-81
2023/01/09 07:31:37;;;;;;;3.35;1.88;;;4.60;99.90;;;;;;5075257;28;20049;-83
2023/01/09 07:34:03;;;;;;;4.75;2.88;;;4.50;99.90;;;;;;5081297;28;20059;-79
2023/01/09 07:36:29;;;;;;;4.13;2.00;;;4.60;99.90;;;;;;5066289;28;21687;-80
2023/01/09 07:38:55;;;;;;;3.90;1.92;;;4.60;99.90;;;;;;5064118;28;20054;-79
2023/01/09 07:41:20;;;;;;;4.20;2.17;;;4.60;99.90;;;;;;5078421;28;20037;-77
2023/01/09 07:43:46;;;;;;;5.28;2.20;;;4.70;99.90;;;;;;5097349;28;20056;-81
2023/01/09 07:46:12;;;;;;;3.20;2.33;;;4.70;99.90;;;;;;5083705;28;20052;-80
2023/01/09 07:48:37;;;;;;;8.68;2.20;;;4.80;99.90;;;;;;5059232;28;20163;-81
2023/01/09 07:51:03;;;;;;;5.65;2.22;;;4.90;99.90;;;;;;5077186;28;20067;-81
2023/01/09 07:53:29;;;;;;;5.03;2.42;;;5.00;99.90;;;;;;5061070;28;20053;-82
2023/01/09 07:55:55;;;;;;;5.28;2.30;;;5.00;99.90;;;;;;5075702;28;20051;-78
2023/01/09 07:58:20;;;;;;;4.55;2.15;;;5.00;99.90;;;;;;5098647;28;20166;-84
2023/01/09 08:00:46;;;;;;;5.20;2.00;;;5.10;99.90;;;;;;5080804;28;20525;-81
2023/01/09 08:03:12;;;;;;;3.30;2.00;;;5.10;99.90;;;;;;5081951;28;20082;-80
2023/01/09 08:05:37;;;;;;;3.17;1.77;;;5.10;99.90;;;;;;5031833;28;20092;-79
2023/01/09 08:08:03;;;;;;;4.25;1.90;;;5.10;99.90;;;;;;5070630;28;20045;-81
2023/01/09 08:10:29;;;;;;;4.10;2.10;;;5.10;99.90;;;;;;5035762;28;20083;-81
2023/01/09 08:12:54;;;;;;;4.70;1.90;;;5.20;99.90;;;;;;5073408;28;20052;-79
2023/01/09 08:15:20;;;;;;;3.88;2.20;;;5.20;99.90;;;;;;5057027;28;20044;-78
2023/01/09 08:17:46;;;;;;;4.47;2.13;;;5.20;99.90;;;;;;5059254;28;20049;-80
2023/01/09 08:20:14;;;;;;;6.40;2.08;;;5.20;99.90;;;;;;5057926;28;20052;-80
2023/01/09 08:22:49;;;;;;;4.05;2.03;;;5.30;99.90;;;;;;5070099;28;20040;-80
2023/01/09 08:25:16;;;;;;;3.55;1.95;;;5.30;99.90;;;;;;5065197;28;20078;-78
2023/01/09 08:27:42;;;;;;;8.55;2.38;;;5.30;99.90;;;;;;5057697;28;20052;-78
2023/01/09 08:30:08;;;;;;;3.13;1.70;;;5.30;99.90;;;;;;5056484;28;20049;-80
2023/01/09 08:32:35;;;;;;;5.15;2.00;;;5.40;99.90;;;;;;5070960;28;20049;-81
2023/01/09 08:35:00;;;;;;;5.25;2.70;;;5.40;99.90;;;;;;5037264;28;20120;-80
2023/01/09 08:37:26;;;;;;;5.88;2.05;;;5.40;99.90;;;;;;5072665;28;20110;-79
2023/01/09 08:39:52;;;;;;;5.00;2.10;;;5.50;99.90;;;;;;5040898;28;20079;-82
2023/01/09 08:47:47;;;;;;;5.30;2.13;;;5.60;99.90;;;;;;5064426;28;20049;-80
2023/01/09 08:50:13;;;;;;;6.22;1.85;;;5.60;99.90;;;;;;5071665;28;20168;-79
2023/01/09 08:52:39;;;;;;;4.28;2.17;;;5.60;99.90;;;;;;5059520;28;20100;-78
2023/01/09 08:55:05;;;;;;;4.38;1.90;;;5.60;99.90;;;;;;5070843;28;20083;-80
2023/01/09 08:57:30;;;;;;;5.10;1.88;;;5.70;99.90;;;;;;5075180;28;20097;-76
2023/01/09 08:59:56;;;;;;;5.50;2.10;;;5.70;99.90;;;;;;5059915;28;20079;-77
2023/01/09 09:02:22;;;;;;;5.75;2.25;;;5.70;99.90;;;;;;5076828;28;20174;-77
2023/01/09 09:04:51;;;;;;;5.95;1.98;;;5.70;99.90;;;;;;5079624;28;20056;-78
2023/01/09 09:07:25;;;;;;;5.40;2.15;;;5.70;99.90;;;;;;5028642;28;20055;-79
2023/01/09 09:09:52;;;;;;;5.95;2.22;;;5.70;99.90;;;;;;5079241;28;20583;-78
2023/01/09 09:12:18;;;;;;;4.60;2.13;;;5.70;99.90;;;;;;5063189;28;20419;-79
2023/01/09 09:17:28;;;;;;;5.18;2.13;;;5.80;99.90;;;;;;5065478;28;20514;-80
2023/01/09 09:19:54;;;;;;;6.38;2.20;;;5.80;99.90;;;;;;5043914;28;20108;-80
2023/01/09 09:22:19;;;;;;;6.75;2.03;;;5.90;99.90;;;;;;5048254;28;20056;-81
2023/01/09 09:24:45;;;;;;;4.75;2.10;;;5.90;99.90;;;;;;5046778;28;20040;-87
2023/01/09 09:27:11;;;;;;;5.50;2.22;;;5.90;99.90;;;;;;5078417;28;20131;-85
2023/01/09 09:29:37;;;;;;;4.93;2.00;;;5.90;99.90;;;;;;5046086;28;20074;-79
2023/01/09 09:32:02;;;;;;;4.82;2.03;;;5.90;99.90;;;;;;5077187;28;20075;-80
2023/01/09 09:34:28;;;;;;;5.45;2.38;;;6.00;99.90;;;;;;5063105;28;20089;-89
2023/01/09 09:36:54;;;;;;;5.63;2.20;;;6.10;99.90;;;;;;5059829;28;20137;-81
2023/01/09 09:39:20;;;;;;;8.18;2.33;;;6.10;99.90;;;;;;5062839;28;20048;-88
2023/01/09 09:45:39;;;;;;;3.63;2.15;;;6.20;99.90;;;;;;5076685;28;20076;-89
2023/01/09 09:48:11;;;;;;;4.97;2.63;;;6.20;99.90;;;;;;5078661;28;20072;-81
2023/01/09 09:50:58;;;;;;;4.38;2.30;;;6.20;99.90;;;;;;5077701;28;20052;-82
2023/01/09 09:53:34;;;;;;;6.03;2.50;;;6.30;99.90;;;;;;5059881;28;20132;-82
2023/01/09 09:56:01;;;;;;;6.22;2.63;;;6.30;99.90;;;;;;5079084;28;20052;-80
2023/01/09 09:58:39;;;;;;;8.80;2.75;;;6.40;99.90;;;;;;5059401;28;20051;-80
2023/01/09 10:01:07;;;;;;;3.45;1.98;;;6.50;99.90;;;;;;5078908;28;20045;-83
2023/01/09 10:03:43;;;;;;;6.38;3.05;;;6.50;99.90;;;;;;5079766;28;20762;-84
2023/01/09 10:06:35;;;;;;;5.32;2.10;;;6.60;99.90;;;;;;5073369;28;20611;-81
2023/01/09 10:09:16;;;;;;;7.75;2.20;;;6.60;99.90;;;;;;5080144;28;20076;-87
2023/01/09 10:12:04;;;;;;;4.70;1.80;;;6.60;99.90;;;;;;5077201;28;20078;-80
2023/01/09 10:14:30;;;;;;;7.05;3.30;;;6.50;99.90;;;;;;5076938;28;20056;-81
2023/01/09 10:17:05;;;;;;;3.70;1.83;;;6.50;99.90;;;;;;5061621;28;20051;-84
2023/01/09 10:19:49;;;;;;;3.40;1.90;;;6.50;99.90;;;;;;5076319;28;20102;-81
2023/01/09 10:22:46;;;;;;;3.13;1.77;;;6.60;99.90;;;;;;5061620;28;20404;-81
2023/01/09 10:25:38;;;;;;;4.45;1.63;;;6.50;99.90;;;;;;5077468;28;20052;-81
2023/01/09 10:28:29;;;;;;;3.13;1.45;;;6.50;99.90;;;;;;5050409;28;20048;-80
2023/01/09 10:31:04;;;;;;;2.75;1.35;;;6.50;99.90;;;;;;5077072;28;20048;-80
2023/01/09 10:33:38;;;;;;;2.03;1.40;;;6.50;99.90;;;;;;5077056;28;20060;-77
2023/01/09 10:36:13;;;;;;;2.88;1.55;;;6.50;99.90;;;;;;5075937;28;20083;-78
2023/01/09 10:38:43;;;;;;;3.88;1.88;;;6.50;99.90;;;;;;5077652;28;20539;-79
2023/01/09 10:41:21;;;;;;;3.90;1.77;;;6.50;99.90;;;;;;5058450;28;20057;-79
2023/01/09 10:43:55;;;;;;;2.72;1.50;;;6.50;99.90;;;;;;5077322;28;20059;-82
2023/01/09 10:46:40;;;;;;;3.75;1.75;;;6.50;99.90;;;;;;5076719;28;20044;-79
2023/01/09 10:49:14;;;;;;;4.43;1.80;;;6.40;99.90;;;;;;5074967;28;20055;-80
2023/01/09 10:52:09;;;;;;;4.13;1.70;;;6.40;99.90;;;;;;5077593;28;20056;-81
2023/01/09 10:54:46;;;;;;;4.63;1.70;;;6.50;99.90;;;;;;5070389;28;20050;-79
2023/01/09 10:57:13;;;;;;;;;;;6.40;99.90;;;;;;5076457;28;20052;-81
2023/01/09 10:59:40;;;;;;;3.88;2.13;;;6.50;99.90;;;;;;5077486;28;20007;-78
2023/01/09 11:02:30;;;;;;;4.18;2.17;;;6.50;99.90;;;;;;5073784;28;20055;-80
2023/01/09 11:04:56;;;;;;;4.25;2.38;;;6.50;99.90;;;;;;5077351;28;20109;-78
2023/01/09 11:07:36;;;;;;;3.05;2.00;;;6.50;99.90;;;;;;5058763;28;20079;-77
2023/01/09 11:10:10;;;;;;;3.05;1.85;;;6.50;99.90;;;;;;5075718;28;20106;-77
2023/01/09 11:12:37;;;;;;;3.85;2.33;;;6.60;99.90;;;;;;5077551;28;20068;-84
2023/01/09 11:15:15;;;;;;;3.45;1.92;;;6.50;99.90;;;;;;5074667;28;20060;-77
2023/01/09 11:17:45;;;;;;;2.92;1.77;;;6.50;99.90;;;;;;5060334;28;20053;-79
2023/01/09 11:20:16;;;;;;;4.05;2.50;;;6.50;99.90;;;;;;5058288;28;20072;-79
2023/01/09 11:22:47;;;;;;;3.88;2.33;;;6.50;99.90;;;;;;5076248;28;20112;-77
2023/01/09 11:25:15;;;;;;;4.00;2.47;;;6.50;99.90;;;;;;5060304;28;20063;-77
2023/01/09 11:27:41;;;;;;;3.58;2.63;;;6.50;99.90;;;;;;5074435;28;20049;-78
2023/01/09 11:30:19;;;;;;;5.88;2.95;;;6.50;99.90;;;;;;5078863;28;20052;-77
2023/01/09 11:32:46;;;;;;;5.32;2.55;;;6.50;99.90;;;;;;5075056;28;20149;-78
2023/01/09 11:35:22;;;;;;;3.53;2.70;;;6.50;99.90;;;;;;5077215;28;20048;-78
2023/01/09 11:37:56;;;;;;;4.40;2.30;;;6.50;99.90;;;;;;5076432;28;20063;-77
2023/01/09 11:40:22;;;;;;;3.88;2.50;;;6.50;99.90;;;;;;5075708;28;20570;-79
2023/01/09 11:43:43;;;;;;;4.18;2.50;;;6.50;99.90;;;;;;5061028;28;20049;-78
2023/01/09 11:46:28;;;;;;;3.30;2.65;;;6.50;99.90;;;;;;5038122;28;20199;-76
2023/01/09 11:48:56;;;;;;;3.58;2.80;;;6.50;99.90;;;;;;5075116;28;20070;-79
2023/01/09 11:51:24;;;;;;;4.82;3.10;;;6.50;99.90;;;;;;5077393;28;20052;-78
2023/01/09 11:54:12;;;;;;;4.40;2.92;;;6.40;99.90;;;;;;5074677;28;20045;-76
2023/01/09 11:56:38;;;;;;;3.83;2.80;;;6.40;99.90;;;;;;5060207;28;20079;-77
2023/01/09 11:59:13;;;;;;;5.20;3.00;;;6.40;99.90;;;;;;5077575;28;20044;-79
2023/01/09 12:01:44;;;;;;;5.95;3.42;;;6.50;99.90;;;;;;5076233;28;20056;-76
2023/01/09 12:04:16;;;;;;;5.18;3.28;;;6.50;99.90;;;;;;5061566;28;20389;-78
2023/01/09 12:06:48;;;;;;;5.30;3.20;;;6.40;99.90;;;;;;5078027;28;20048;-77
2023/01/09 12:09:25;;;;;;;6.10;3.50;;;6.40;99.90;;;;;;5060990;28;20063;-76
2023/01/09 12:12:00;;;;;;;5.70;3.38;;;6.40;99.90;;;;;;5071797;28;20580;-76
2023/01/09 12:14:50;;;;;;;6.70;3.90;;;6.40;99.90;;;;;;5077426;28;20045;-77
2023/01/09 12:17:35;;;;;;;5.85;3.17;;;6.40;99.90;;;;;;5080850;28;20052;-76
2023/01/09 12:20:16;;;;;;;6.85;3.72;;;6.40;99.90;;;;;;5062036;28;20056;-79
2023/01/09 12:22:45;;;;;;;7.45;3.70;;;6.40;99.90;;;;;;5079261;28;20112;-78
2023/01/09 12:25:20;;;;;;;5.53;3.83;;;6.40;99.90;;;;;;5064082;28;20059;-77
2023/01/09 12:27:57;;;;;;;6.28;4.03;;;6.40;99.90;;;;;;5077935;28;20529;-79
2023/01/09 12:30:52;;;;;;;6.25;4.20;;;6.30;99.90;;;;;;5063911;28;20055;-77
2023/01/09 12:33:49;;;;;;;8.32;4.30;;;6.40;99.90;;;;;;5075532;28;20056;-77
2023/01/09 12:36:27;;;;;;;;;;;6.40;99.90;;;;;;5053612;28;20067;-79
2023/01/09 12:39:22;;;;;;;6.03;4.03;;;6.40;99.90;;;;;;5080291;28;19928;-79
2023/01/09 12:42:12;;;;;;;7.50;4.28;;;6.40;99.90;;;;;;5079318;28;20053;-78
2023/01/09 12:44:50;;;;;;;7.97;4.60;;;6.50;99.90;;;;;;5078555;28;20104;-81
2023/01/09 12:47:25;;;;;;;6.55;4.50;;;6.50;99.90;;;;;;5080747;28;20048;-78
2023/01/09 12:49:58;;;;;;;6.10;4.05;;;6.50;99.90;;;;;;5061288;28;20052;-77
2023/01/09 12:52:39;;;;;;;6.90;4.35;;;6.50;99.90;;;;;;5081063;28;20075;-80
2023/01/09 12:55:25;;;;;;;9.82;4.47;;;6.60;99.90;;;;;;5080157;28;20044;-79
2023/01/09 12:57:56;;;;;;;6.97;4.47;;;6.60;99.90;;;;;;5076855;28;20056;-79
2023/01/09 13:00:44;;;;;;;7.68;4.00;;;6.60;99.90;;;;;;5080099;28;20056;-83
2023/01/09 13:03:13;;;;;;;6.75;4.15;;;6.60;99.90;;;;;;5079078;28;20049;-80
2023/01/09 13:05:47;;;;;;;6.30;4.07;;;6.60;99.90;;;;;;5078808;28;20048;-80
2023/01/09 13:08:17;;;;;;;8.93;4.55;;;6.70;99.90;;;;;;5063058;28;20055;-84
2023/01/09 13:10:48;;;;;;;6.90;4.47;;;6.70;99.90;;;;;;5076947;28;20074;-78
2023/01/09 13:13:56;;;;;;;8.60;4.15;;;6.70;99.90;;;;;;5079834;28;20088;-80
2023/01/09 13:16:34;;;;;;;8.00;4.10;;;6.70;99.90;;;;;;5042551;28;20049;-82
2023/01/09 13:19:22;;;;;;;6.95;4.20;;;6.70;99.90;;;;;;5040560;28;20073;-77
2023/01/09 13:21:48;;;;;;;7.30;4.75;;;6.30;99.90;;;;;;5076411;28;20053;-78
2023/01/09 13:24:14;;;;;;;6.72;4.30;;;6.70;99.90;;;;;;5040256;28;20871;-77
2023/01/09 13:26:44;;;;;;;7.75;4.45;;;6.70;99.90;;;;;;5075457;28;20040;-80
2023/01/09 13:29:22;;;;;;;7.97;5.25;;;6.80;99.90;;;;;;5042471;28;20055;-80
2023/01/09 13:32:13;;;;;;;8.68;4.90;;;6.80;99.90;;;;;;5056918;28;20045;-77